createdAt,value
2019-05-26T00:06:23.684Z,6.60
2019-05-26T00:21:23.823Z,6.80
2019-05-26T00:36:24.135Z,7.60
2019-05-26T00:51:24.232Z,6.60
2019-05-26T01:06:24.441Z,6.70
2019-05-26T01:21:24.548Z,7.50
2019-05-26T01:36:24.651Z,8.20
2019-05-26T01:51:24.878Z,8.60
2019-05-26T02:06:25.164Z,9.80
2019-05-26T02:21:25.371Z,8.80
2019-05-26T02:36:25.582Z,8.20
2019-05-26T02:51:25.779Z,8.20
2019-05-26T03:06:26.028Z,7.90
2019-05-26T03:21:26.145Z,8.90
2019-05-26T03:36:27.317Z,8.10
2019-05-26T03:51:27.458Z,8.30
2019-05-26T04:06:27.542Z,8.60
2019-05-26T04:21:27.732Z,9.10
2019-05-26T04:36:27.938Z,9.30
2019-05-26T04:51:28.115Z,8.80
2019-05-26T05:06:28.271Z,9.20
2019-05-26T05:21:28.440Z,9.40
2019-05-26T05:36:28.639Z,9.90
2019-05-26T05:51:28.792Z,10.70
2019-05-26T06:06:28.979Z,10.10
2019-05-26T06:21:29.145Z,9.70
2019-05-26T06:36:29.367Z,8.50
2019-05-26T06:51:29.590Z,8.10
2019-05-26T07:06:29.740Z,8.50
2019-05-26T07:21:29.891Z,7.50
2019-05-26T07:36:30.096Z,5.30
2019-05-26T07:51:30.318Z,4.70
2019-05-26T08:06:30.514Z,3.10
2019-05-26T08:21:30.640Z,3.40
2019-05-26T08:36:30.827Z,3.30
2019-05-26T08:51:31.072Z,3.80
2019-05-26T09:06:31.171Z,2.60
2019-05-26T09:21:31.363Z,3.60
2019-05-26T09:36:31.473Z,3.80
2019-05-26T09:51:31.701Z,3.50
2019-05-26T10:06:31.887Z,4.00
2019-05-26T10:21:32.182Z,5.00
2019-05-26T10:36:32.290Z,6.10
2019-05-26T10:51:32.432Z,9.70
2019-05-26T11:06:32.600Z,10.90
2019-05-26T11:21:32.753Z,7.20
2019-05-26T11:36:32.906Z,6.20
2019-05-26T11:51:33.075Z,5.70
2019-05-26T12:06:33.179Z,4.30
2019-05-26T12:21:33.374Z,4.20
2019-05-26T12:36:33.537Z,2.90
2019-05-26T12:51:33.759Z,3.10
2019-05-26T13:06:33.954Z,1.90
2019-05-26T13:21:34.157Z,2.00
2019-05-26T13:36:34.359Z,1.90
2019-05-26T13:51:34.707Z,1.50
2019-05-26T14:06:34.695Z,1.90
2019-05-26T14:21:34.828Z,2.30
2019-05-26T14:36:34.974Z,2.70
2019-05-26T14:51:35.135Z,2.20
2019-05-26T15:06:35.811Z,2.20
2019-05-26T15:21:35.910Z,2.70
2019-05-26T15:36:36.041Z,1.90
2019-05-26T15:51:36.225Z,1.80
2019-05-26T16:06:36.391Z,2.10
2019-05-26T16:21:36.566Z,1.80
2019-05-26T16:36:36.784Z,1.40
2019-05-26T16:51:36.947Z,1.80
2019-05-26T17:06:37.085Z,3.40
2019-05-26T17:21:37.246Z,1.50
2019-05-26T17:36:37.376Z,1.90
2019-05-26T17:51:37.500Z,2.00
2019-05-26T18:06:37.682Z,2.10
2019-05-26T18:21:37.812Z,1.40
2019-05-26T18:36:38.012Z,1.50
2019-05-26T18:51:38.220Z,2.10
2019-05-26T19:06:38.464Z,1.50
2019-05-26T19:21:38.683Z,1.80
2019-05-26T19:36:38.975Z,2.20
2019-05-26T19:51:39.066Z,2.10
2019-05-26T20:06:39.184Z,2.00
2019-05-26T20:21:39.259Z,2.30
2019-05-26T20:36:39.470Z,2.40
2019-05-26T20:51:39.671Z,2.60
2019-05-26T21:06:39.812Z,2.60
2019-05-26T21:21:40.015Z,2.70
2019-05-26T21:36:40.273Z,3.00
2019-05-26T21:51:40.436Z,3.30
2019-05-26T22:06:40.627Z,3.00
2019-05-26T22:21:40.774Z,2.90
2019-05-26T22:36:40.927Z,3.60
2019-05-26T22:51:41.079Z,4.00
2019-05-26T23:06:41.329Z,3.60
2019-05-26T23:21:41.508Z,4.30
2019-05-26T23:36:41.668Z,3.10
2019-05-26T23:51:41.823Z,3.20
